createdAt,value
2022-07-29T00:00:26.026Z,12.33
2022-07-29T00:03:05.002Z,13.00
2022-07-29T00:05:33.747Z,13.25
2022-07-29T00:08:02.297Z,13.00
2022-07-29T00:10:30.881Z,12.50
2022-07-29T00:12:59.658Z,12.33
2022-07-29T00:15:28.233Z,13.00
2022-07-29T00:17:56.590Z,12.75
2022-07-29T00:20:25.140Z,13.00
2022-07-29T00:22:54.681Z,13.75
2022-07-29T00:25:23.125Z,13.33
2022-07-29T00:27:51.795Z,13.00
2022-07-29T00:30:20.312Z,12.50
2022-07-29T00:32:48.750Z,12.25
2022-07-29T00:35:35.722Z,12.00
2022-07-29T00:38:04.192Z,12.67
2022-07-29T00:40:33.071Z,12.75
2022-07-29T00:43:01.551Z,12.67
2022-07-29T00:45:31.299Z,12.75
2022-07-29T00:48:00.022Z,12.67
2022-07-29T00:50:28.429Z,12.25
2022-07-29T00:52:56.829Z,12.75
2022-07-29T00:55:25.382Z,12.00
2022-07-29T00:57:54.509Z,13.00
2022-07-29T01:00:27.049Z,12.75
2022-07-29T01:02:55.700Z,12.50
2022-07-29T01:05:50.975Z,12.75
2022-07-29T01:08:16.758Z,12.25
2022-07-29T01:10:45.735Z,14.25
2022-07-29T01:13:16.267Z,12.25
2022-07-29T01:15:49.880Z,13.00
2022-07-29T01:18:24.322Z,14.25
2022-07-29T01:21:08.136Z,13.00
2022-07-29T01:23:54.997Z,13.25
2022-07-29T01:26:55.715Z,13.00
2022-07-29T01:29:36.276Z,13.00
2022-07-29T01:32:22.579Z,12.50
2022-07-29T01:35:14.086Z,12.75
2022-07-29T01:37:48.906Z,13.00
2022-07-29T01:40:49.562Z,13.50
2022-07-29T01:43:22.846Z,12.33
2022-07-29T01:45:59.097Z,12.50
2022-07-29T01:48:50.557Z,12.25
2022-07-29T01:51:28.705Z,13.00
2022-07-29T01:54:10.207Z,12.25
2022-07-29T01:56:39.760Z,12.67
2022-07-29T01:59:09.817Z,12.33
2022-07-29T02:01:41.080Z,13.00
2022-07-29T02:04:11.628Z,13.00
2022-07-29T02:07:04.285Z,12.75
2022-07-29T02:09:36.294Z,12.50
2022-07-29T02:12:06.046Z,12.50
2022-07-29T02:14:38.387Z,13.00
2022-07-29T02:17:07.475Z,12.50
2022-07-29T02:19:39.499Z,12.75
2022-07-29T02:22:09.015Z,13.00
2022-07-29T02:24:38.605Z,13.75
2022-07-29T02:27:08.846Z,12.50
2022-07-29T02:29:38.837Z,12.50
2022-07-29T02:32:08.755Z,12.75
2022-07-29T02:34:37.839Z,14.25
2022-07-29T02:37:06.855Z,12.00
2022-07-29T02:39:36.116Z,13.00
2022-07-29T02:42:11.481Z,13.00
2022-07-29T02:44:40.441Z,12.25
2022-07-29T02:47:25.432Z,12.00
2022-07-29T02:49:55.486Z,12.33
2022-07-29T02:52:39.087Z,12.00
2022-07-29T02:55:28.375Z,12.25
2022-07-29T02:58:03.597Z,13.75
2022-07-29T03:00:36.446Z,12.50
2022-07-29T03:03:07.805Z,13.25
2022-07-29T03:05:36.736Z,12.50
2022-07-29T03:08:08.645Z,12.50
2022-07-29T03:10:39.287Z,14.00
2022-07-29T03:13:09.030Z,12.50
2022-07-29T03:15:38.103Z,12.75
2022-07-29T03:18:08.298Z,12.75
2022-07-29T03:20:37.085Z,12.75
2022-07-29T03:23:05.886Z,12.50
2022-07-29T03:25:34.436Z,12.50
2022-07-29T03:28:02.896Z,13.00
2022-07-29T03:30:32.242Z,12.75
2022-07-29T03:33:01.125Z,13.25
2022-07-29T03:35:33.128Z,12.50
2022-07-29T03:38:01.958Z,12.25
2022-07-29T03:40:55.965Z,12.75
2022-07-29T03:43:27.047Z,12.50
2022-07-29T03:45:56.730Z,12.50
2022-07-29T03:48:26.896Z,12.50
2022-07-29T03:50:55.406Z,12.33
2022-07-29T03:53:24.304Z,12.50
2022-07-29T03:55:55.654Z,12.67
2022-07-29T03:58:24.788Z,12.75
2022-07-29T04:00:54.226Z,12.33
2022-07-29T04:03:23.001Z,12.75
2022-07-29T04:06:08.736Z,12.25
2022-07-29T04:08:37.457Z,13.75
2022-07-29T04:11:07.078Z,12.00
2022-07-29T04:13:35.486Z,13.00
2022-07-29T04:16:04.531Z,12.33
2022-07-29T04:18:32.926Z,14.25
2022-07-29T04:21:02.185Z,14.00
2022-07-29T04:23:34.819Z,14.25
2022-07-29T04:26:03.535Z,14.25
2022-07-29T04:28:32.666Z,12.75
2022-07-29T04:31:01.144Z,14.00
2022-07-29T04:33:29.618Z,13.75
2022-07-29T04:35:58.425Z,14.00
2022-07-29T04:38:27.846Z,12.50
2022-07-29T04:40:56.319Z,13.75
2022-07-29T04:43:24.908Z,14.00
2022-07-29T04:45:53.442Z,14.00
2022-07-29T04:48:26.686Z,14.00
2022-07-29T04:50:57.977Z,15.00
2022-07-29T04:53:27.987Z,14.00
2022-07-29T04:55:56.447Z,14.25
2022-07-29T04:58:25.485Z,18.00
2022-07-29T05:00:54.036Z,18.00
2022-07-29T05:03:22.525Z,18.00
2022-07-29T05:05:51.256Z,16.00
2022-07-29T05:08:19.806Z,17.00
2022-07-29T05:10:48.267Z,18.25
2022-07-29T05:13:17.648Z,16.75
2022-07-29T05:15:46.113Z,16.50
2022-07-29T05:18:15.547Z,15.50
2022-07-29T05:20:44.287Z,15.00
2022-07-29T05:23:14.148Z,15.00
2022-07-29T05:25:44.025Z,15.50
2022-07-29T05:28:13.681Z,16.33
2022-07-29T05:30:42.121Z,17.00
2022-07-29T05:33:35.124Z,15.75
2022-07-29T05:36:00.760Z,14.00
2022-07-29T05:38:30.410Z,15.00
2022-07-29T05:41:00.341Z,16.75
2022-07-29T05:43:29.482Z,17.00
2022-07-29T05:45:58.241Z,16.67
2022-07-29T05:48:27.148Z,17.25
2022-07-29T05:50:56.134Z,15.50
2022-07-29T05:53:24.596Z,15.00
2022-07-29T05:55:53.511Z,15.25
2022-07-29T05:58:22.237Z,14.00
2022-07-29T06:00:50.719Z,15.00
2022-07-29T06:03:19.190Z,15.25
2022-07-29T06:05:47.713Z,16.50
2022-07-29T06:08:15.923Z,15.25
2022-07-29T06:10:45.241Z,15.25
2022-07-29T06:13:14.370Z,15.00
2022-07-29T06:15:43.660Z,15.00
2022-07-29T06:18:14.592Z,15.50
2022-07-29T06:20:43.434Z,14.50
2022-07-29T06:23:11.769Z,16.25
2022-07-29T06:25:41.939Z,15.00
2022-07-29T06:28:10.739Z,17.00
2022-07-29T06:30:40.715Z,16.50
2022-07-29T06:33:09.600Z,15.75
2022-07-29T06:35:42.283Z,16.00
2022-07-29T06:38:31.816Z,15.25
2022-07-29T06:41:12.289Z,18.25
2022-07-29T06:43:51.854Z,17.00
2022-07-29T06:46:23.683Z,16.00
2022-07-29T06:48:53.572Z,16.75
2022-07-29T06:51:23.817Z,17.00
2022-07-29T06:54:00.331Z,16.50
2022-07-29T06:56:38.484Z,15.75
2022-07-29T06:59:10.325Z,16.75
2022-07-29T07:01:40.489Z,15.25
2022-07-29T07:04:10.147Z,17.50
2022-07-29T07:06:39.129Z,17.75
2022-07-29T07:09:08.190Z,16.00
2022-07-29T07:11:36.909Z,18.25
2022-07-29T07:14:05.303Z,18.25
2022-07-29T07:16:33.949Z,16.75
2022-07-29T07:19:02.892Z,18.00
2022-07-29T07:21:31.615Z,17.00
2022-07-29T07:24:01.118Z,17.25
2022-07-29T07:26:29.738Z,17.00
2022-07-29T07:28:58.238Z,17.00
2022-07-29T07:31:26.652Z,18.00
2022-07-29T07:33:55.253Z,16.00
2022-07-29T07:36:24.409Z,15.25
2022-07-29T07:38:52.773Z,15.00
2022-07-29T07:41:22.138Z,15.50
2022-07-29T07:43:50.650Z,15.25
2022-07-29T07:46:19.119Z,16.00
2022-07-29T07:48:47.884Z,15.00
2022-07-29T07:51:16.468Z,15.50
2022-07-29T07:53:46.130Z,15.00
2022-07-29T07:56:14.798Z,15.00
2022-07-29T07:58:43.219Z,15.25
2022-07-29T08:01:11.847Z,15.00
2022-07-29T08:03:40.732Z,16.50
2022-07-29T08:06:09.028Z,16.67
2022-07-29T08:08:37.421Z,15.00
2022-07-29T08:11:09.716Z,15.50
2022-07-29T08:13:39.718Z,15.50
2022-07-29T08:16:13.525Z,15.00
2022-07-29T08:18:43.597Z,15.75
2022-07-29T08:21:14.793Z,14.50
2022-07-29T08:23:58.938Z,15.00
2022-07-29T08:26:29.749Z,15.00
2022-07-29T08:28:58.109Z,15.50
2022-07-29T08:31:26.518Z,15.33
2022-07-29T08:33:57.462Z,15.67
2022-07-29T08:36:27.808Z,14.25
2022-07-29T08:38:56.630Z,15.25
2022-07-29T08:41:25.098Z,14.00
2022-07-29T08:43:53.966Z,16.00
2022-07-29T08:46:23.385Z,15.25
2022-07-29T08:48:51.970Z,15.00
2022-07-29T08:51:22.097Z,15.33
2022-07-29T08:53:51.740Z,16.25
2022-07-29T08:56:21.193Z,17.00
2022-07-29T08:58:51.886Z,16.75
2022-07-29T09:01:35.278Z,15.50
2022-07-29T09:04:09.384Z,15.33
2022-07-29T09:06:39.843Z,16.50
2022-07-29T09:09:09.037Z,16.75
2022-07-29T09:11:37.652Z,16.25
2022-07-29T09:14:06.890Z,16.75
2022-07-29T09:16:57.635Z,17.00
2022-07-29T09:19:36.279Z,16.33
2022-07-29T09:22:06.829Z,16.00
2022-07-29T09:24:44.087Z,15.50
2022-07-29T09:27:23.329Z,16.50
2022-07-29T09:30:05.054Z,16.50
2022-07-29T09:32:55.756Z,15.00
2022-07-29T09:35:26.408Z,15.50
2022-07-29T09:37:55.299Z,15.25
2022-07-29T09:40:27.585Z,15.25
2022-07-29T09:42:58.707Z,17.00
2022-07-29T09:45:33.814Z,16.33
2022-07-29T09:48:22.728Z,16.25
2022-07-29T09:50:51.876Z,15.25
2022-07-29T09:53:38.371Z,15.25
2022-07-29T09:56:07.211Z,18.00
2022-07-29T09:58:35.869Z,16.75
2022-07-29T10:01:05.163Z,16.00
2022-07-29T10:03:33.692Z,15.00
2022-07-29T10:06:20.631Z,16.00
2022-07-29T10:08:51.131Z,18.50
2022-07-29T10:11:20.460Z,16.33
2022-07-29T10:13:49.898Z,16.75
2022-07-29T10:16:19.156Z,15.50
2022-07-29T10:18:48.101Z,15.50
2022-07-29T10:21:35.064Z,16.75
2022-07-29T10:24:06.520Z,17.50
2022-07-29T10:26:35.495Z,16.75
2022-07-29T10:29:03.947Z,18.00
2022-07-29T10:31:50.942Z,17.50
2022-07-29T10:34:50.017Z,16.50
2022-07-29T10:37:38.337Z,16.00
2022-07-29T10:41:08.758Z,16.67
2022-07-29T10:43:43.287Z,17.25
2022-07-29T10:46:13.634Z,17.67
2022-07-29T10:49:09.191Z,16.75
2022-07-29T10:52:00.853Z,16.25
2022-07-29T10:54:48.816Z,16.50
2022-07-29T10:57:17.809Z,17.00
2022-07-29T10:59:49.369Z,16.75
2022-07-29T11:02:43.481Z,16.75
2022-07-29T11:05:21.746Z,16.67
2022-07-29T11:08:20.206Z,17.00
2022-07-29T11:10:51.549Z,18.00
2022-07-29T11:13:44.591Z,17.50
2022-07-29T11:16:16.681Z,16.50
2022-07-29T11:19:26.590Z,17.75
2022-07-29T11:21:59.917Z,16.50
2022-07-29T11:24:32.476Z,17.25
2022-07-29T11:27:13.223Z,16.25
2022-07-29T11:29:52.561Z,17.00
2022-07-29T11:32:24.295Z,16.25
2022-07-29T11:35:19.268Z,15.50
2022-07-29T11:38:32.040Z,16.75
2022-07-29T11:41:19.020Z,16.33
2022-07-29T11:43:59.051Z,17.00
2022-07-29T11:46:54.003Z,15.75
2022-07-29T11:49:32.158Z,16.00
2022-07-29T11:52:03.259Z,17.25
2022-07-29T11:57:36.086Z,16.25
2022-07-29T12:00:14.656Z,17.00
2022-07-29T12:02:48.474Z,16.50
2022-07-29T12:05:35.849Z,16.75
2022-07-29T12:07:02.300Z,16.00
2022-07-29T12:08:14.752Z,16.00
2022-07-29T12:10:44.215Z,16.75
2022-07-29T12:13:13.788Z,16.75
2022-07-29T12:15:56.425Z,17.25
2022-07-29T12:18:29.150Z,16.75
2022-07-29T12:21:05.067Z,16.50
2022-07-29T12:23:35.586Z,17.00
2022-07-29T12:26:10.649Z,16.33
2022-07-29T12:28:40.484Z,17.50
2022-07-29T12:31:42.431Z,15.00
2022-07-29T12:34:04.460Z,16.50
2022-07-29T12:36:32.777Z,15.00
2022-07-29T12:39:01.296Z,16.33
2022-07-29T12:41:30.528Z,16.50
2022-07-29T12:43:58.858Z,16.67
2022-07-29T12:46:27.232Z,16.50
2022-07-29T12:48:57.711Z,15.75
2022-07-29T12:51:40.238Z,16.33
2022-07-29T12:54:14.944Z,15.00
2022-07-29T12:56:45.776Z,18.25
2022-07-29T12:59:20.160Z,17.00
2022-07-29T13:01:51.661Z,16.50
2022-07-29T13:04:28.799Z,17.00
2022-07-29T13:07:07.649Z,16.25
2022-07-29T13:09:44.361Z,16.50
2022-07-29T13:12:14.874Z,17.00
2022-07-29T13:14:45.739Z,16.75
2022-07-29T13:17:24.311Z,16.25
2022-07-29T13:19:55.083Z,16.50
2022-07-29T13:22:25.297Z,16.67
2022-07-29T13:24:59.239Z,17.25
2022-07-29T13:27:33.438Z,15.33
2022-07-29T13:30:03.817Z,16.50
2022-07-29T13:32:35.639Z,16.67
2022-07-29T13:35:07.720Z,16.50
2022-07-29T13:37:39.807Z,16.50
2022-07-29T13:40:09.722Z,18.00
2022-07-29T13:42:38.246Z,16.33
2022-07-29T13:45:08.130Z,16.75
2022-07-29T13:47:36.911Z,16.50
2022-07-29T13:50:07.714Z,16.00
2022-07-29T13:52:36.098Z,17.00
2022-07-29T13:55:05.958Z,16.50
2022-07-29T13:57:34.420Z,16.25
2022-07-29T14:00:03.010Z,18.25
2022-07-29T14:02:36.931Z,16.50
2022-07-29T14:05:08.631Z,17.00
2022-07-29T14:07:40.101Z,17.00
2022-07-29T14:10:08.839Z,16.75
2022-07-29T14:12:37.517Z,16.50
2022-07-29T14:15:06.661Z,17.75
2022-07-29T14:17:35.589Z,16.50
2022-07-29T14:20:05.308Z,17.00
2022-07-29T14:22:37.840Z,18.00
2022-07-29T14:25:14.469Z,16.75
2022-07-29T14:27:44.968Z,16.50
2022-07-29T14:30:13.751Z,16.50
2022-07-29T14:32:42.602Z,16.75
2022-07-29T14:35:11.142Z,17.25
2022-07-29T14:37:40.846Z,18.00
2022-07-29T14:40:10.441Z,18.00
2022-07-29T14:42:40.127Z,16.67
2022-07-29T14:45:10.214Z,16.50
2022-07-29T14:47:39.490Z,16.00
2022-07-29T14:50:08.872Z,17.75
2022-07-29T14:52:37.563Z,16.75
2022-07-29T14:55:19.425Z,16.00
2022-07-29T14:57:49.577Z,17.75
2022-07-29T15:00:18.993Z,16.00
2022-07-29T15:03:01.259Z,17.33
2022-07-29T15:05:32.536Z,16.25
2022-07-29T15:08:01.039Z,16.50
2022-07-29T15:10:29.934Z,18.00
2022-07-29T15:13:01.420Z,17.00
2022-07-29T15:15:30.065Z,17.25
2022-07-29T15:17:58.303Z,16.25
2022-07-29T15:20:28.277Z,17.33
2022-07-29T15:22:57.265Z,18.33
2022-07-29T15:25:27.970Z,17.75
2022-07-29T15:28:01.226Z,16.00
2022-07-29T15:30:34.777Z,15.00
2022-07-29T15:33:04.554Z,16.67
2022-07-29T15:35:33.485Z,18.00
2022-07-29T15:38:09.600Z,17.00
2022-07-29T15:40:41.500Z,16.67
2022-07-29T15:43:10.180Z,18.00
2022-07-29T15:45:40.760Z,17.67
2022-07-29T15:48:14.628Z,16.50
2022-07-29T15:50:47.048Z,16.75
2022-07-29T15:53:15.775Z,16.25
2022-07-29T15:55:44.488Z,16.50
2022-07-29T15:58:13.298Z,16.75
2022-07-29T16:00:41.757Z,16.33
2022-07-29T16:03:10.490Z,17.00
2022-07-29T16:05:39.016Z,17.75
2022-07-29T16:08:07.446Z,16.75
2022-07-29T16:10:36.637Z,17.00
2022-07-29T16:13:05.002Z,18.25
2022-07-29T16:15:33.321Z,19.67
2022-07-29T16:18:01.840Z,19.00
2022-07-29T16:20:31.506Z,20.75
2022-07-29T16:22:59.777Z,21.75
2022-07-29T16:25:50.236Z,20.50
2022-07-29T16:28:17.480Z,21.00
2022-07-29T16:30:45.937Z,19.00
2022-07-29T16:33:14.322Z,21.00
2022-07-29T16:35:43.135Z,20.25
2022-07-29T16:38:11.447Z,21.75
2022-07-29T16:40:39.596Z,23.00
2022-07-29T16:43:07.891Z,24.25
2022-07-29T16:45:42.569Z,22.67
2022-07-29T16:48:17.319Z,24.00
2022-07-29T16:50:46.912Z,21.25
2022-07-29T16:53:15.066Z,23.25
2022-07-29T16:55:43.146Z,21.50
2022-07-29T16:58:12.157Z,23.50
2022-07-29T17:00:40.752Z,23.25
2022-07-29T17:03:09.074Z,23.00
2022-07-29T17:05:52.550Z,21.75
2022-07-29T17:08:23.217Z,21.50
2022-07-29T17:10:51.707Z,21.75
2022-07-29T17:13:19.950Z,20.33
2022-07-29T17:15:48.140Z,20.25
2022-07-29T17:18:16.518Z,19.50
2022-07-29T17:20:45.714Z,18.00
2022-07-29T17:23:14.007Z,18.67
2022-07-29T17:25:42.342Z,19.00
2022-07-29T17:28:10.464Z,19.25
2022-07-29T17:30:38.688Z,19.25
2022-07-29T17:33:06.982Z,17.50
2022-07-29T17:35:53.455Z,17.75
2022-07-29T17:38:21.793Z,17.33
2022-07-29T17:40:49.948Z,17.75
2022-07-29T17:43:18.154Z,16.00
2022-07-29T17:45:50.226Z,16.25
2022-07-29T17:48:20.091Z,16.75
2022-07-29T17:50:49.122Z,17.75
2022-07-29T17:53:17.352Z,16.00
2022-07-29T17:55:46.578Z,16.75
2022-07-29T17:58:15.137Z,16.67
2022-07-29T18:00:44.025Z,18.00
2022-07-29T18:03:12.493Z,16.75
2022-07-29T18:05:41.372Z,17.25
2022-07-29T18:08:09.568Z,17.75
2022-07-29T18:10:38.226Z,15.00
2022-07-29T18:13:06.649Z,17.00
2022-07-29T18:15:35.147Z,17.50
2022-07-29T18:18:03.327Z,16.00
2022-07-29T18:20:31.702Z,17.00
2022-07-29T18:23:00.076Z,17.50
2022-07-29T18:25:29.094Z,19.00
2022-07-29T18:28:00.524Z,16.25
2022-07-29T18:30:29.947Z,16.50
2022-07-29T18:33:20.686Z,16.75
2022-07-29T18:35:51.142Z,16.50
2022-07-29T18:38:22.017Z,18.00
2022-07-29T18:40:51.158Z,16.75
2022-07-29T18:43:19.337Z,16.33
2022-07-29T18:45:49.988Z,19.75
2022-07-29T18:48:18.905Z,17.33
2022-07-29T18:50:47.034Z,18.25
2022-07-29T18:53:15.317Z,17.75
2022-07-29T18:55:43.647Z,18.00
2022-07-29T18:58:11.976Z,19.25
2022-07-29T19:00:40.371Z,18.00
2022-07-29T19:03:10.327Z,16.33
2022-07-29T19:05:38.731Z,19.50
2022-07-29T19:08:07.151Z,17.75
2022-07-29T19:10:35.397Z,17.75
2022-07-29T19:13:05.761Z,19.50
2022-07-29T19:15:34.357Z,19.50
2022-07-29T19:18:02.730Z,19.00
2022-07-29T19:20:31.081Z,19.25
2022-07-29T19:22:59.770Z,17.50
2022-07-29T19:25:28.354Z,19.75
2022-07-29T19:27:58.753Z,18.00
2022-07-29T19:30:27.883Z,17.50
2022-07-29T19:32:56.325Z,18.25
2022-07-29T19:35:24.825Z,15.25
2022-07-29T19:37:56.921Z,17.50
2022-07-29T19:40:26.690Z,16.50
2022-07-29T19:42:55.511Z,17.50
2022-07-29T19:45:26.093Z,16.50
2022-07-29T19:48:00.731Z,18.00
2022-07-29T19:50:30.365Z,17.33
2022-07-29T19:52:59.446Z,16.67
2022-07-29T19:55:28.360Z,18.00
2022-07-29T19:57:59.436Z,17.67
2022-07-29T20:00:31.477Z,17.75
2022-07-29T20:03:00.144Z,17.50
2022-07-29T20:05:28.888Z,18.00
2022-07-29T20:07:57.434Z,17.75
2022-07-29T20:10:26.073Z,17.75
2022-07-29T20:12:55.197Z,19.00
2022-07-29T20:15:24.294Z,17.75
2022-07-29T20:17:57.201Z,17.50
2022-07-29T20:20:26.377Z,18.25
2022-07-29T20:22:54.946Z,16.25
2022-07-29T20:25:23.937Z,17.00
2022-07-29T20:27:55.336Z,19.00
2022-07-29T20:30:23.991Z,19.00
2022-07-29T20:32:52.348Z,18.25
2022-07-29T20:35:22.575Z,18.00
2022-07-29T20:37:56.323Z,18.00
2022-07-29T20:40:26.411Z,18.00
2022-07-29T20:42:55.531Z,18.00
2022-07-29T20:45:24.175Z,19.00
2022-07-29T20:47:53.219Z,20.00
2022-07-29T20:50:24.325Z,18.00
2022-07-29T20:52:53.266Z,17.67
2022-07-29T20:55:21.916Z,19.00
2022-07-29T20:57:50.545Z,20.00
2022-07-29T21:00:19.067Z,18.00
2022-07-29T21:02:47.595Z,20.25
2022-07-29T21:05:17.724Z,19.00
2022-07-29T21:07:46.267Z,20.33
2022-07-29T21:10:15.505Z,20.75
2022-07-29T21:12:46.787Z,21.50
2022-07-29T21:15:15.404Z,22.00
2022-07-29T21:17:47.631Z,19.25
2022-07-29T21:20:19.164Z,21.75
2022-07-29T21:22:47.730Z,18.75
2022-07-29T21:25:16.087Z,17.75
2022-07-29T21:28:03.074Z,18.50
2022-07-29T21:30:31.454Z,18.50
2022-07-29T21:33:00.106Z,17.75
2022-07-29T21:36:02.151Z,14.75
2022-07-29T21:38:18.694Z,16.50
2022-07-29T21:40:48.315Z,15.00
2022-07-29T21:43:17.818Z,16.33
2022-07-29T21:45:52.705Z,16.00
2022-07-29T21:48:21.925Z,16.25
2022-07-29T21:50:51.950Z,16.75
2022-07-29T21:53:22.905Z,16.50
2022-07-29T21:55:54.005Z,18.00
2022-07-29T21:58:25.045Z,17.50
2022-07-29T22:00:54.149Z,16.50
2022-07-29T22:03:22.782Z,17.75
2022-07-29T22:05:51.235Z,16.25
2022-07-29T22:08:22.043Z,16.50
2022-07-29T22:10:50.615Z,15.50
2022-07-29T22:13:18.965Z,17.25
2022-07-29T22:15:48.815Z,16.67
2022-07-29T22:18:20.921Z,15.00
2022-07-29T22:20:50.523Z,16.00
2022-07-29T22:23:18.985Z,15.50
2022-07-29T22:25:47.427Z,16.00
2022-07-29T22:28:16.088Z,15.67
2022-07-29T22:30:44.389Z,15.75
2022-07-29T22:33:17.578Z,15.25
2022-07-29T22:35:48.690Z,16.75
2022-07-29T22:38:18.810Z,15.25
2022-07-29T22:40:48.700Z,15.50
2022-07-29T22:43:19.228Z,16.25
2022-07-29T22:45:47.574Z,15.25
2022-07-29T22:48:16.735Z,17.00
2022-07-29T22:50:45.097Z,13.75
2022-07-29T22:53:13.386Z,17.00
2022-07-29T22:55:42.264Z,15.33
2022-07-29T22:58:10.777Z,16.33
2022-07-29T23:00:39.221Z,15.50
2022-07-29T23:03:07.817Z,16.00
2022-07-29T23:05:36.688Z,14.00
2022-07-29T23:08:07.572Z,15.25
2022-07-29T23:10:36.486Z,16.75
2022-07-29T23:13:04.803Z,15.75
2022-07-29T23:15:33.283Z,15.50
2022-07-29T23:18:05.314Z,14.00
2022-07-29T23:20:33.893Z,15.75
2022-07-29T23:23:02.483Z,15.50
2022-07-29T23:25:31.435Z,15.00
2022-07-29T23:27:59.807Z,15.75
2022-07-29T23:30:28.555Z,15.50
2022-07-29T23:32:57.715Z,14.75
2022-07-29T23:35:26.230Z,14.25
2022-07-29T23:37:54.773Z,13.25
2022-07-29T23:40:23.394Z,14.25
2022-07-29T23:42:51.913Z,14.00
2022-07-29T23:45:20.524Z,15.25
2022-07-29T23:47:49.183Z,15.00
2022-07-29T23:50:17.825Z,14.00
2022-07-29T23:52:46.314Z,13.75
2022-07-29T23:55:37.957Z,13.75
2022-07-29T23:58:03.523Z,15.00
